sensor_id;sensor_type;location;lat;lon;timestamp;P1;durP1;ratioP1;P2;durP2;ratioP2
8319;SDS011;4197;42.130;24.746;2024-01-15T00:02:27;104.70;;;50.57;;
8319;SDS011;4197;42.130;24.746;2024-01-15T00:04:56;101.90;;;49.23;;
8319;SDS011;4197;42.130;24.746;2024-01-15T00:07:25;98.57;;;48.50;;
8319;SDS011;4197;42.130;24.746;2024-01-15T00:09:53;98.67;;;49.87;;
8319;SDS011;4197;42.130;24.746;2024-01-15T00:12:21;91.43;;;49.47;;
8319;SDS011;4197;42.130;24.746;2024-01-15T00:14:49;100.07;;;50.17;;
8319;SDS011;4197;42.130;24.746;2024-01-15T00:17:18;93.87;;;47.07;;
8319;SDS011;4197;42.130;24.746;2024-01-15T00:19:46;95.00;;;48.03;;
8319;SDS011;4197;42.130;24.746;2024-01-15T00:22:16;111.40;;;51.57;;
8319;SDS011;4197;42.130;24.746;2024-01-15T00:24:45;94.03;;;48.27;;
8319;SDS011;4197;42.130;24.746;2024-01-15T00:27:13;106.67;;;51.53;;
8319;SDS011;4197;42.130;24.746;2024-01-15T00:29:42;102.57;;;52.90;;
8319;SDS011;4197;42.130;24.746;2024-01-15T00:32:10;107.93;;;53.93;;
8319;SDS011;4197;42.130;24.746;2024-01-15T00:34:38;111.50;;;51.83;;
8319;SDS011;4197;42.130;24.746;2024-01-15T00:37:07;135.33;;;56.43;;
8319;SDS011;4197;42.130;24.746;2024-01-15T00:39:37;108.50;;;49.57;;
8319;SDS011;4197;42.130;24.746;2024-01-15T00:42:05;116.07;;;51.37;;
8319;SDS011;4197;42.130;24.746;2024-01-15T00:44:34;98.33;;;49.27;;
8319;SDS011;4197;42.130;24.746;2024-01-15T00:47:02;95.00;;;48.70;;
8319;SDS011;4197;42.130;24.746;2024-01-15T00:49:31;101.90;;;47.73;;
8319;SDS011;4197;42.130;24.746;2024-01-15T00:51:59;100.50;;;48.47;;
8319;SDS011;4197;42.130;24.746;2024-01-15T00:54:28;86.77;;;43.33;;
8319;SDS011;4197;42.130;24.746;2024-01-15T00:56:58;71.53;;;37.27;;
8319;SDS011;4197;42.130;24.746;2024-01-15T00:59:26;68.50;;;35.93;;
8319;SDS011;4197;42.130;24.746;2024-01-15T01:01:55;64.43;;;32.30;;
8319;SDS011;4197;42.130;24.746;2024-01-15T01:04:23;65.77;;;34.17;;
8319;SDS011;4197;42.130;24.746;2024-01-15T01:06:51;64.07;;;34.40;;
8319;SDS011;4197;42.130;24.746;2024-01-15T01:09:19;79.53;;;39.90;;
8319;SDS011;4197;42.130;24.746;2024-01-15T01:11:48;89.03;;;40.90;;
8319;SDS011;4197;42.130;24.746;2024-01-15T01:14:17;83.43;;;41.17;;
8319;SDS011;4197;42.130;24.746;2024-01-15T01:16:46;86.67;;;42.17;;
8319;SDS011;4197;42.130;24.746;2024-01-15T01:19:14;93.60;;;45.87;;
8319;SDS011;4197;42.130;24.746;2024-01-15T01:21:43;81.43;;;42.27;;
8319;SDS011;4197;42.130;24.746;2024-01-15T01:24:11;87.53;;;42.83;;
8319;SDS011;4197;42.130;24.746;2024-01-15T01:26:40;89.03;;;44.33;;
8319;SDS011;4197;42.130;24.746;2024-01-15T01:29:08;82.17;;;43.63;;
8319;SDS011;4197;42.130;24.746;2024-01-15T01:31:41;75.20;;;41.07;;
8319;SDS011;4197;42.130;24.746;2024-01-15T01:34:10;79.63;;;41.33;;
8319;SDS011;4197;42.130;24.746;2024-01-15T01:36:41;73.57;;;37.77;;
8319;SDS011;4197;42.130;24.746;2024-01-15T01:39:10;70.87;;;36.73;;
8319;SDS011;4197;42.130;24.746;2024-01-15T01:41:39;68.80;;;35.37;;
8319;SDS011;4197;42.130;24.746;2024-01-15T01:44:07;64.57;;;36.57;;
8319;SDS011;4197;42.130;24.746;2024-01-15T01:46:37;72.40;;;35.60;;
8319;SDS011;4197;42.130;24.746;2024-01-15T01:49:07;78.20;;;34.73;;
8319;SDS011;4197;42.130;24.746;2024-01-15T01:51:37;96.93;;;40.47;;
8319;SDS011;4197;42.130;24.746;2024-01-15T01:54:06;78.63;;;39.87;;
8319;SDS011;4197;42.130;24.746;2024-01-15T01:56:39;87.80;;;42.93;;
8319;SDS011;4197;42.130;24.746;2024-01-15T01:59:08;71.80;;;39.80;;
8319;SDS011;4197;42.130;24.746;2024-01-15T02:01:40;65.43;;;34.97;;
8319;SDS011;4197;42.130;24.746;2024-01-15T02:04:08;67.70;;;34.90;;
8319;SDS011;4197;42.130;24.746;2024-01-15T02:06:37;58.97;;;29.43;;
8319;SDS011;4197;42.130;24.746;2024-01-15T02:09:06;56.47;;;29.43;;
8319;SDS011;4197;42.130;24.746;2024-01-15T02:11:36;53.27;;;29.87;;
8319;SDS011;4197;42.130;24.746;2024-01-15T02:14:04;48.67;;;27.90;;
8319;SDS011;4197;42.130;24.746;2024-01-15T02:16:32;58.10;;;29.13;;
8319;SDS011;4197;42.130;24.746;2024-01-15T02:19:02;60.27;;;28.73;;
8319;SDS011;4197;42.130;24.746;2024-01-15T02:21:31;64.33;;;33.87;;
8319;SDS011;4197;42.130;24.746;2024-01-15T02:24:01;60.53;;;33.07;;
8319;SDS011;4197;42.130;24.746;2024-01-15T02:26:29;53.77;;;31.43;;
8319;SDS011;4197;42.130;24.746;2024-01-15T02:29:02;55.07;;;29.27;;
8319;SDS011;4197;42.130;24.746;2024-01-15T02:31:32;59.20;;;32.73;;
8319;SDS011;4197;42.130;24.746;2024-01-15T02:34:00;57.87;;;29.90;;
8319;SDS011;4197;42.130;24.746;2024-01-15T02:36:29;58.33;;;32.20;;
8319;SDS011;4197;42.130;24.746;2024-01-15T02:38:57;59.90;;;31.47;;
8319;SDS011;4197;42.130;24.746;2024-01-15T02:41:27;53.03;;;28.63;;
8319;SDS011;4197;42.130;24.746;2024-01-15T02:43:55;56.03;;;30.27;;
8319;SDS011;4197;42.130;24.746;2024-01-15T02:46:24;52.50;;;30.40;;
8319;SDS011;4197;42.130;24.746;2024-01-15T02:48:52;56.03;;;32.20;;
8319;SDS011;4197;42.130;24.746;2024-01-15T02:51:21;53.77;;;31.27;;
8319;SDS011;4197;42.130;24.746;2024-01-15T02:53:49;55.83;;;31.20;;
8319;SDS011;4197;42.130;24.746;2024-01-15T02:56:18;57.27;;;31.53;;
8319;SDS011;4197;42.130;24.746;2024-01-15T02:58:47;61.43;;;32.60;;
8319;SDS011;4197;42.130;24.746;2024-01-15T03:01:18;66.03;;;34.27;;
8319;SDS011;4197;42.130;24.746;2024-01-15T03:03:47;63.33;;;32.80;;
8319;SDS011;4197;42.130;24.746;2024-01-15T03:06:15;68.03;;;34.47;;
8319;SDS011;4197;42.130;24.746;2024-01-15T03:08:43;61.27;;;32.80;;
8319;SDS011;4197;42.130;24.746;2024-01-15T03:11:12;64.07;;;34.87;;
8319;SDS011;4197;42.130;24.746;2024-01-15T03:13:40;63.80;;;34.67;;
8319;SDS011;4197;42.130;24.746;2024-01-15T03:16:10;64.97;;;34.17;;
8319;SDS011;4197;42.130;24.746;2024-01-15T03:18:38;62.03;;;34.80;;
8319;SDS011;4197;42.130;24.746;2024-01-15T03:21:06;68.30;;;35.60;;
8319;SDS011;4197;42.130;24.746;2024-01-15T03:23:35;73.43;;;35.93;;
8319;SDS011;4197;42.130;24.746;2024-01-15T03:26:03;69.13;;;34.47;;
8319;SDS011;4197;42.130;24.746;2024-01-15T03:28:31;63.33;;;32.13;;
8319;SDS011;4197;42.130;24.746;2024-01-15T03:30:59;63.00;;;32.57;;
8319;SDS011;4197;42.130;24.746;2024-01-15T03:33:29;58.83;;;34.33;;
8319;SDS011;4197;42.130;24.746;2024-01-15T03:35:58;65.57;;;34.97;;
8319;SDS011;4197;42.130;24.746;2024-01-15T03:38:27;62.57;;;32.67;;
8319;SDS011;4197;42.130;24.746;2024-01-15T03:40:56;60.23;;;31.40;;
8319;SDS011;4197;42.130;24.746;2024-01-15T03:43:24;53.73;;;30.60;;
8319;SDS011;4197;42.130;24.746;2024-01-15T03:45:53;64.47;;;31.90;;
8319;SDS011;4197;42.130;24.746;2024-01-15T03:48:22;60.00;;;33.23;;
8319;SDS011;4197;42.130;24.746;2024-01-15T03:50:52;58.97;;;32.37;;
8319;SDS011;4197;42.130;24.746;2024-01-15T03:53:20;52.77;;;30.30;;
8319;SDS011;4197;42.130;24.746;2024-01-15T03:55:48;49.93;;;28.07;;
8319;SDS011;4197;42.130;24.746;2024-01-15T03:58:17;53.10;;;28.67;;
8319;SDS011;4197;42.130;24.746;2024-01-15T04:00:45;48.00;;;27.97;;
8319;SDS011;4197;42.130;24.746;2024-01-15T04:03:14;51.57;;;28.90;;
8319;SDS011;4197;42.130;24.746;2024-01-15T04:05:42;48.70;;;27.03;;
8319;SDS011;4197;42.130;24.746;2024-01-15T04:08:12;50.23;;;27.07;;
8319;SDS011;4197;42.130;24.746;2024-01-15T04:10:41;51.27;;;28.53;;
8319;SDS011;4197;42.130;24.746;2024-01-15T04:13:09;49.27;;;27.30;;
8319;SDS011;4197;42.130;24.746;2024-01-15T04:15:37;57.00;;;28.93;;
8319;SDS011;4197;42.130;24.746;2024-01-15T04:18:05;45.77;;;28.10;;
8319;SDS011;4197;42.130;24.746;2024-01-15T04:20:34;47.13;;;28.00;;
8319;SDS011;4197;42.130;24.746;2024-01-15T04:23:03;55.17;;;29.90;;
8319;SDS011;4197;42.130;24.746;2024-01-15T04:25:33;48.17;;;26.73;;
8319;SDS011;4197;42.130;24.746;2024-01-15T04:28:01;67.20;;;37.37;;
8319;SDS011;4197;42.130;24.746;2024-01-15T04:30:29;62.50;;;33.60;;
8319;SDS011;4197;42.130;24.746;2024-01-15T04:32:58;54.00;;;28.17;;
8319;SDS011;4197;42.130;24.746;2024-01-15T04:35:26;52.47;;;28.73;;
8319;SDS011;4197;42.130;24.746;2024-01-15T04:37:54;53.97;;;29.47;;
8319;SDS011;4197;42.130;24.746;2024-01-15T04:40:22;55.73;;;29.73;;
8319;SDS011;4197;42.130;24.746;2024-01-15T04:42:55;60.87;;;30.47;;
8319;SDS011;4197;42.130;24.746;2024-01-15T04:45:23;53.37;;;28.87;;
8319;SDS011;4197;42.130;24.746;2024-01-15T04:47:55;60.13;;;28.97;;
8319;SDS011;4197;42.130;24.746;2024-01-15T04:50:25;54.30;;;31.53;;
8319;SDS011;4197;42.130;24.746;2024-01-15T04:52:53;58.43;;;33.07;;
8319;SDS011;4197;42.130;24.746;2024-01-15T04:55:21;80.77;;;39.30;;
8319;SDS011;4197;42.130;24.746;2024-01-15T04:57:49;56.47;;;32.03;;
8319;SDS011;4197;42.130;24.746;2024-01-15T05:00:19;58.73;;;31.47;;
8319;SDS011;4197;42.130;24.746;2024-01-15T05:02:47;57.37;;;31.03;;
8319;SDS011;4197;42.130;24.746;2024-01-15T05:05:16;51.70;;;29.27;;
8319;SDS011;4197;42.130;24.746;2024-01-15T05:07:44;56.07;;;30.17;;
8319;SDS011;4197;42.130;24.746;2024-01-15T05:10:13;53.87;;;30.33;;
8319;SDS011;4197;42.130;24.746;2024-01-15T05:12:41;61.77;;;32.20;;
8319;SDS011;4197;42.130;24.746;2024-01-15T05:15:09;64.43;;;34.67;;
8319;SDS011;4197;42.130;24.746;2024-01-15T05:17:39;66.33;;;32.90;;
8319;SDS011;4197;42.130;24.746;2024-01-15T05:20:25;67.57;;;33.00;;
8319;SDS011;4197;42.130;24.746;2024-01-15T05:22:54;63.60;;;35.93;;
8319;SDS011;4197;42.130;24.746;2024-01-15T05:25:22;123.80;;;57.57;;
8319;SDS011;4197;42.130;24.746;2024-01-15T05:27:50;67.33;;;36.57;;
8319;SDS011;4197;42.130;24.746;2024-01-15T05:30:19;67.30;;;36.63;;
8319;SDS011;4197;42.130;24.746;2024-01-15T05:32:49;76.73;;;36.40;;
8319;SDS011;4197;42.130;24.746;2024-01-15T05:35:17;64.70;;;35.37;;
8319;SDS011;4197;42.130;24.746;2024-01-15T05:37:46;59.80;;;33.87;;
8319;SDS011;4197;42.130;24.746;2024-01-15T05:40:15;66.47;;;33.80;;
8319;SDS011;4197;42.130;24.746;2024-01-15T05:42:43;74.97;;;37.93;;
8319;SDS011;4197;42.130;24.746;2024-01-15T05:45:11;83.87;;;42.23;;
8319;SDS011;4197;42.130;24.746;2024-01-15T05:47:40;66.27;;;36.23;;
8319;SDS011;4197;42.130;24.746;2024-01-15T05:50:10;72.20;;;37.27;;
8319;SDS011;4197;42.130;24.746;2024-01-15T05:52:39;76.80;;;39.60;;
8319;SDS011;4197;42.130;24.746;2024-01-15T05:55:07;80.57;;;41.37;;
8319;SDS011;4197;42.130;24.746;2024-01-15T05:57:36;79.10;;;41.83;;
8319;SDS011;4197;42.130;24.746;2024-01-15T06:00:05;74.80;;;37.57;;
8319;SDS011;4197;42.130;24.746;2024-01-15T06:02:37;81.60;;;37.73;;
8319;SDS011;4197;42.130;24.746;2024-01-15T06:05:06;67.67;;;37.27;;
8319;SDS011;4197;42.130;24.746;2024-01-15T06:07:36;60.30;;;34.47;;
8319;SDS011;4197;42.130;24.746;2024-01-15T06:10:04;59.53;;;33.37;;
8319;SDS011;4197;42.130;24.746;2024-01-15T06:12:34;64.40;;;34.53;;
8319;SDS011;4197;42.130;24.746;2024-01-15T06:15:02;68.87;;;34.70;;
8319;SDS011;4197;42.130;24.746;2024-01-15T06:17:31;58.63;;;32.93;;
8319;SDS011;4197;42.130;24.746;2024-01-15T06:19:59;57.87;;;31.30;;
8319;SDS011;4197;42.130;24.746;2024-01-15T06:22:28;62.60;;;31.47;;
8319;SDS011;4197;42.130;24.746;2024-01-15T06:24:57;62.30;;;32.37;;
8319;SDS011;4197;42.130;24.746;2024-01-15T06:27:26;72.63;;;35.43;;
8319;SDS011;4197;42.130;24.746;2024-01-15T06:29:54;77.87;;;34.70;;
8319;SDS011;4197;42.130;24.746;2024-01-15T06:32:23;60.33;;;30.87;;
8319;SDS011;4197;42.130;24.746;2024-01-15T06:34:52;53.20;;;30.73;;
8319;SDS011;4197;42.130;24.746;2024-01-15T06:37:20;52.27;;;30.20;;
8319;SDS011;4197;42.130;24.746;2024-01-15T06:39:48;60.63;;;29.37;;
8319;SDS011;4197;42.130;24.746;2024-01-15T06:42:18;55.23;;;29.57;;
8319;SDS011;4197;42.130;24.746;2024-01-15T06:44:48;57.50;;;28.00;;
8319;SDS011;4197;42.130;24.746;2024-01-15T06:47:17;61.60;;;30.37;;
8319;SDS011;4197;42.130;24.746;2024-01-15T06:49:45;48.30;;;28.37;;
8319;SDS011;4197;42.130;24.746;2024-01-15T06:52:14;55.87;;;27.87;;
8319;SDS011;4197;42.130;24.746;2024-01-15T06:54:42;49.53;;;26.43;;
8319;SDS011;4197;42.130;24.746;2024-01-15T06:57:11;51.17;;;25.47;;
8319;SDS011;4197;42.130;24.746;2024-01-15T06:59:41;54.33;;;29.57;;
8319;SDS011;4197;42.130;24.746;2024-01-15T07:02:09;48.30;;;27.60;;
8319;SDS011;4197;42.130;24.746;2024-01-15T07:04:38;60.90;;;29.77;;
8319;SDS011;4197;42.130;24.746;2024-01-15T07:07:09;60.87;;;31.87;;
8319;SDS011;4197;42.130;24.746;2024-01-15T07:09:37;66.30;;;34.87;;
8319;SDS011;4197;42.130;24.746;2024-01-15T07:12:06;72.27;;;36.63;;
8319;SDS011;4197;42.130;24.746;2024-01-15T07:14:34;68.90;;;36.73;;
8319;SDS011;4197;42.130;24.746;2024-01-15T07:17:04;74.50;;;36.40;;
8319;SDS011;4197;42.130;24.746;2024-01-15T07:19:32;73.70;;;37.93;;
8319;SDS011;4197;42.130;24.746;2024-01-15T07:22:01;64.53;;;34.93;;
8319;SDS011;4197;42.130;24.746;2024-01-15T07:24:29;66.87;;;40.23;;
8319;SDS011;4197;42.130;24.746;2024-01-15T07:26:57;72.07;;;37.20;;
8319;SDS011;4197;42.130;24.746;2024-01-15T07:29:26;77.73;;;40.17;;
8319;SDS011;4197;42.130;24.746;2024-01-15T07:31:54;85.03;;;37.90;;
8319;SDS011;4197;42.130;24.746;2024-01-15T07:34:24;72.67;;;39.37;;
8319;SDS011;4197;42.130;24.746;2024-01-15T07:36:52;76.57;;;42.37;;
8319;SDS011;4197;42.130;24.746;2024-01-15T07:39:21;68.07;;;39.07;;
8319;SDS011;4197;42.130;24.746;2024-01-15T07:41:51;59.47;;;33.90;;
8319;SDS011;4197;42.130;24.746;2024-01-15T07:44:19;67.47;;;37.23;;
8319;SDS011;4197;42.130;24.746;2024-01-15T07:46:48;58.67;;;35.50;;
8319;SDS011;4197;42.130;24.746;2024-01-15T07:49:16;68.13;;;36.97;;
8319;SDS011;4197;42.130;24.746;2024-01-15T07:51:47;72.10;;;37.80;;
8319;SDS011;4197;42.130;24.746;2024-01-15T07:54:15;73.40;;;41.03;;
8319;SDS011;4197;42.130;24.746;2024-01-15T07:56:53;73.10;;;39.53;;
8319;SDS011;4197;42.130;24.746;2024-01-15T07:59:22;81.93;;;40.13;;
8319;SDS011;4197;42.130;24.746;2024-01-15T08:01:51;81.17;;;42.27;;
8319;SDS011;4197;42.130;24.746;2024-01-15T08:04:19;72.70;;;41.87;;
8319;SDS011;4197;42.130;24.746;2024-01-15T08:06:50;77.67;;;42.40;;
8319;SDS011;4197;42.130;24.746;2024-01-15T08:09:18;80.50;;;43.93;;
8319;SDS011;4197;42.130;24.746;2024-01-15T08:11:47;78.90;;;46.43;;
8319;SDS011;4197;42.130;24.746;2024-01-15T08:14:16;79.27;;;44.50;;
8319;SDS011;4197;42.130;24.746;2024-01-15T08:16:45;75.00;;;42.37;;
8319;SDS011;4197;42.130;24.746;2024-01-15T08:19:14;74.70;;;40.13;;
8319;SDS011;4197;42.130;24.746;2024-01-15T08:21:42;74.80;;;38.97;;
8319;SDS011;4197;42.130;24.746;2024-01-15T08:24:12;65.30;;;37.03;;
8319;SDS011;4197;42.130;24.746;2024-01-15T08:26:43;58.33;;;35.47;;
8319;SDS011;4197;42.130;24.746;2024-01-15T08:29:11;58.43;;;35.30;;
8319;SDS011;4197;42.130;24.746;2024-01-15T08:31:40;67.23;;;35.40;;
8319;SDS011;4197;42.130;24.746;2024-01-15T08:34:08;66.10;;;35.17;;
8319;SDS011;4197;42.130;24.746;2024-01-15T08:36:37;59.03;;;32.77;;
8319;SDS011;4197;42.130;24.746;2024-01-15T08:39:05;51.73;;;30.23;;
8319;SDS011;4197;42.130;24.746;2024-01-15T08:41:37;56.47;;;31.63;;
8319;SDS011;4197;42.130;24.746;2024-01-15T08:44:05;54.00;;;31.17;;
8319;SDS011;4197;42.130;24.746;2024-01-15T08:46:34;64.33;;;35.43;;
8319;SDS011;4197;42.130;24.746;2024-01-15T08:49:03;61.83;;;35.93;;
8319;SDS011;4197;42.130;24.746;2024-01-15T08:51:32;62.47;;;35.17;;
8319;SDS011;4197;42.130;24.746;2024-01-15T08:54:02;62.10;;;34.23;;
8319;SDS011;4197;42.130;24.746;2024-01-15T08:56:30;58.67;;;33.63;;
8319;SDS011;4197;42.130;24.746;2024-01-15T08:59:00;57.03;;;31.30;;
8319;SDS011;4197;42.130;24.746;2024-01-15T09:01:28;60.20;;;32.40;;
8319;SDS011;4197;42.130;24.746;2024-01-15T09:03:57;62.33;;;31.90;;
8319;SDS011;4197;42.130;24.746;2024-01-15T09:06:26;54.83;;;32.10;;
8319;SDS011;4197;42.130;24.746;2024-01-15T09:08:54;56.17;;;32.67;;
8319;SDS011;4197;42.130;24.746;2024-01-15T09:11:22;56.47;;;32.23;;
8319;SDS011;4197;42.130;24.746;2024-01-15T09:13:51;59.33;;;33.03;;
8319;SDS011;4197;42.130;24.746;2024-01-15T09:16:20;57.40;;;33.97;;
8319;SDS011;4197;42.130;24.746;2024-01-15T09:18:49;60.63;;;32.77;;
8319;SDS011;4197;42.130;24.746;2024-01-15T09:21:17;58.60;;;32.83;;
8319;SDS011;4197;42.130;24.746;2024-01-15T09:23:46;54.90;;;33.03;;
8319;SDS011;4197;42.130;24.746;2024-01-15T09:26:14;54.60;;;32.80;;
8319;SDS011;4197;42.130;24.746;2024-01-15T09:28:42;54.77;;;32.67;;
8319;SDS011;4197;42.130;24.746;2024-01-15T09:31:11;61.13;;;33.47;;
8319;SDS011;4197;42.130;24.746;2024-01-15T09:33:41;62.20;;;31.67;;
8319;SDS011;4197;42.130;24.746;2024-01-15T09:36:09;54.20;;;32.03;;
8319;SDS011;4197;42.130;24.746;2024-01-15T09:38:37;58.30;;;33.77;;
8319;SDS011;4197;42.130;24.746;2024-01-15T09:41:08;54.83;;;31.63;;
8319;SDS011;4197;42.130;24.746;2024-01-15T09:43:36;60.33;;;33.73;;
8319;SDS011;4197;42.130;24.746;2024-01-15T09:46:06;56.97;;;31.73;;
8319;SDS011;4197;42.130;24.746;2024-01-15T09:48:35;59.03;;;31.60;;
8319;SDS011;4197;42.130;24.746;2024-01-15T09:51:07;56.60;;;30.87;;
8319;SDS011;4197;42.130;24.746;2024-01-15T09:53:37;52.43;;;30.07;;
8319;SDS011;4197;42.130;24.746;2024-01-15T09:56:06;48.27;;;29.53;;
8319;SDS011;4197;42.130;24.746;2024-01-15T09:58:38;53.47;;;31.00;;
8319;SDS011;4197;42.130;24.746;2024-01-15T10:01:09;44.80;;;28.30;;
8319;SDS011;4197;42.130;24.746;2024-01-15T10:03:38;47.40;;;28.23;;
8319;SDS011;4197;42.130;24.746;2024-01-15T10:06:11;47.83;;;26.73;;
8319;SDS011;4197;42.130;24.746;2024-01-15T10:08:49;52.80;;;30.43;;
8319;SDS011;4197;42.130;24.746;2024-01-15T10:11:18;52.73;;;29.03;;
8319;SDS011;4197;42.130;24.746;2024-01-15T10:13:46;55.70;;;30.10;;
8319;SDS011;4197;42.130;24.746;2024-01-15T10:16:19;48.30;;;28.03;;
8319;SDS011;4197;42.130;24.746;2024-01-15T10:18:48;48.23;;;25.60;;
8319;SDS011;4197;42.130;24.746;2024-01-15T10:21:18;46.47;;;26.63;;
8319;SDS011;4197;42.130;24.746;2024-01-15T10:23:47;47.27;;;26.87;;
8319;SDS011;4197;42.130;24.746;2024-01-15T10:26:15;47.73;;;28.07;;
8319;SDS011;4197;42.130;24.746;2024-01-15T10:28:45;44.67;;;27.67;;
8319;SDS011;4197;42.130;24.746;2024-01-15T10:31:13;44.87;;;26.50;;
8319;SDS011;4197;42.130;24.746;2024-01-15T10:33:42;46.70;;;26.43;;
8319;SDS011;4197;42.130;24.746;2024-01-15T10:36:11;54.37;;;31.23;;
8319;SDS011;4197;42.130;24.746;2024-01-15T10:38:41;58.13;;;29.97;;
8319;SDS011;4197;42.130;24.746;2024-01-15T10:43:57;49.70;;;29.87;;
8319;SDS011;4197;42.130;24.746;2024-01-15T10:46:25;53.63;;;30.93;;
8319;SDS011;4197;42.130;24.746;2024-01-15T10:48:54;54.90;;;30.07;;
8319;SDS011;4197;42.130;24.746;2024-01-15T10:51:22;55.00;;;32.37;;
8319;SDS011;4197;42.130;24.746;2024-01-15T10:53:54;63.30;;;33.20;;
8319;SDS011;4197;42.130;24.746;2024-01-15T10:56:24;58.37;;;33.63;;
8319;SDS011;4197;42.130;24.746;2024-01-15T10:58:55;66.13;;;40.70;;
8319;SDS011;4197;42.130;24.746;2024-01-15T11:01:26;69.80;;;38.83;;
8319;SDS011;4197;42.130;24.746;2024-01-15T11:03:56;54.30;;;31.87;;
8319;SDS011;4197;42.130;24.746;2024-01-15T11:06:25;46.37;;;29.07;;
8319;SDS011;4197;42.130;24.746;2024-01-15T11:08:58;48.90;;;30.03;;
8319;SDS011;4197;42.130;24.746;2024-01-15T11:11:30;52.93;;;31.30;;
8319;SDS011;4197;42.130;24.746;2024-01-15T11:14:03;52.50;;;29.30;;
8319;SDS011;4197;42.130;24.746;2024-01-15T11:19:25;43.77;;;24.00;;
8319;SDS011;4197;42.130;24.746;2024-01-15T11:22:03;52.90;;;27.90;;
8319;SDS011;4197;42.130;24.746;2024-01-15T11:24:34;51.87;;;27.20;;
8319;SDS011;4197;42.130;24.746;2024-01-15T11:27:04;44.10;;;26.80;;
8319;SDS011;4197;42.130;24.746;2024-01-15T11:29:33;49.63;;;26.87;;
8319;SDS011;4197;42.130;24.746;2024-01-15T11:32:03;44.77;;;26.97;;
8319;SDS011;4197;42.130;24.746;2024-01-15T11:34:50;44.10;;;27.80;;
8319;SDS011;4197;42.130;24.746;2024-01-15T11:37:20;44.37;;;25.67;;
8319;SDS011;4197;42.130;24.746;2024-01-15T11:39:52;45.83;;;27.33;;
8319;SDS011;4197;42.130;24.746;2024-01-15T11:42:21;47.53;;;25.70;;
8319;SDS011;4197;42.130;24.746;2024-01-15T11:44:50;39.97;;;24.83;;
8319;SDS011;4197;42.130;24.746;2024-01-15T11:47:23;43.90;;;26.47;;
8319;SDS011;4197;42.130;24.746;2024-01-15T11:50:12;46.20;;;27.83;;
8319;SDS011;4197;42.130;24.746;2024-01-15T11:52:42;39.10;;;23.73;;
8319;SDS011;4197;42.130;24.746;2024-01-15T11:55:22;34.97;;;22.33;;
8319;SDS011;4197;42.130;24.746;2024-01-15T11:57:55;40.10;;;24.67;;
8319;SDS011;4197;42.130;24.746;2024-01-15T12:00:25;36.33;;;22.93;;
8319;SDS011;4197;42.130;24.746;2024-01-15T12:02:53;39.83;;;24.03;;
8319;SDS011;4197;42.130;24.746;2024-01-15T12:05:22;43.57;;;23.57;;
8319;SDS011;4197;42.130;24.746;2024-01-15T12:07:51;46.07;;;25.27;;
8319;SDS011;4197;42.130;24.746;2024-01-15T12:10:21;34.83;;;22.33;;
8319;SDS011;4197;42.130;24.746;2024-01-15T12:12:53;47.00;;;26.13;;
8319;SDS011;4197;42.130;24.746;2024-01-15T12:15:28;37.20;;;22.00;;
8319;SDS011;4197;42.130;24.746;2024-01-15T12:17:57;36.20;;;23.60;;
8319;SDS011;4197;42.130;24.746;2024-01-15T12:20:27;37.37;;;23.70;;
8319;SDS011;4197;42.130;24.746;2024-01-15T12:22:56;32.20;;;19.93;;
8319;SDS011;4197;42.130;24.746;2024-01-15T12:25:31;41.20;;;22.73;;
8319;SDS011;4197;42.130;24.746;2024-01-15T12:28:00;34.27;;;21.60;;
8319;SDS011;4197;42.130;24.746;2024-01-15T12:30:29;38.07;;;22.23;;
8319;SDS011;4197;42.130;24.746;2024-01-15T12:33:00;38.40;;;21.97;;
8319;SDS011;4197;42.130;24.746;2024-01-15T12:35:30;42.53;;;25.73;;
8319;SDS011;4197;42.130;24.746;2024-01-15T12:37:59;41.53;;;25.57;;
8319;SDS011;4197;42.130;24.746;2024-01-15T12:40:32;47.67;;;26.40;;
8319;SDS011;4197;42.130;24.746;2024-01-15T12:43:03;41.30;;;23.90;;
8319;SDS011;4197;42.130;24.746;2024-01-15T12:45:33;46.00;;;25.97;;
8319;SDS011;4197;42.130;24.746;2024-01-15T12:48:03;44.83;;;25.77;;
8319;SDS011;4197;42.130;24.746;2024-01-15T12:50:33;58.90;;;32.70;;
8319;SDS011;4197;42.130;24.746;2024-01-15T12:53:02;72.63;;;37.10;;
8319;SDS011;4197;42.130;24.746;2024-01-15T12:55:32;69.93;;;37.07;;
8319;SDS011;4197;42.130;24.746;2024-01-15T12:58:01;68.23;;;38.93;;
8319;SDS011;4197;42.130;24.746;2024-01-15T13:00:30;69.47;;;37.33;;
8319;SDS011;4197;42.130;24.746;2024-01-15T13:02:58;66.73;;;38.60;;
8319;SDS011;4197;42.130;24.746;2024-01-15T13:05:31;78.27;;;40.23;;
8319;SDS011;4197;42.130;24.746;2024-01-15T13:08:01;66.77;;;38.63;;
8319;SDS011;4197;42.130;24.746;2024-01-15T13:10:31;78.00;;;39.87;;
8319;SDS011;4197;42.130;24.746;2024-01-15T13:12:59;68.37;;;40.73;;
8319;SDS011;4197;42.130;24.746;2024-01-15T13:15:28;72.63;;;40.43;;
8319;SDS011;4197;42.130;24.746;2024-01-15T13:17:58;68.53;;;40.67;;
8319;SDS011;4197;42.130;24.746;2024-01-15T13:20:26;81.67;;;40.93;;
8319;SDS011;4197;42.130;24.746;2024-01-15T13:22:55;63.97;;;38.87;;
8319;SDS011;4197;42.130;24.746;2024-01-15T13:25:23;63.60;;;39.70;;
8319;SDS011;4197;42.130;24.746;2024-01-15T13:27:53;62.03;;;38.57;;
8319;SDS011;4197;42.130;24.746;2024-01-15T13:30:21;64.07;;;38.93;;
8319;SDS011;4197;42.130;24.746;2024-01-15T13:32:50;80.10;;;39.63;;
8319;SDS011;4197;42.130;24.746;2024-01-15T13:35:19;76.63;;;38.90;;
8319;SDS011;4197;42.130;24.746;2024-01-15T13:37:47;62.83;;;36.37;;
8319;SDS011;4197;42.130;24.746;2024-01-15T13:40:15;65.80;;;38.97;;
8319;SDS011;4197;42.130;24.746;2024-01-15T13:42:46;77.70;;;40.27;;
8319;SDS011;4197;42.130;24.746;2024-01-15T13:45:16;72.40;;;41.47;;
8319;SDS011;4197;42.130;24.746;2024-01-15T13:47:47;70.47;;;41.20;;
8319;SDS011;4197;42.130;24.746;2024-01-15T13:50:15;72.83;;;41.37;;
8319;SDS011;4197;42.130;24.746;2024-01-15T13:52:43;70.60;;;40.30;;
8319;SDS011;4197;42.130;24.746;2024-01-15T13:55:12;69.70;;;38.33;;
8319;SDS011;4197;42.130;24.746;2024-01-15T13:57:40;72.17;;;38.57;;
8319;SDS011;4197;42.130;24.746;2024-01-15T14:00:09;77.47;;;39.73;;
8319;SDS011;4197;42.130;24.746;2024-01-15T14:02:40;69.73;;;39.63;;
8319;SDS011;4197;42.130;24.746;2024-01-15T14:05:09;78.27;;;45.83;;
8319;SDS011;4197;42.130;24.746;2024-01-15T14:07:39;75.27;;;42.23;;
8319;SDS011;4197;42.130;24.746;2024-01-15T14:10:08;67.43;;;38.57;;
8319;SDS011;4197;42.130;24.746;2024-01-15T14:12:37;73.07;;;38.47;;
8319;SDS011;4197;42.130;24.746;2024-01-15T14:15:06;73.63;;;38.80;;
8319;SDS011;4197;42.130;24.746;2024-01-15T14:17:35;61.17;;;36.83;;
8319;SDS011;4197;42.130;24.746;2024-01-15T14:20:07;72.30;;;36.40;;
8319;SDS011;4197;42.130;24.746;2024-01-15T14:22:37;59.97;;;37.00;;
8319;SDS011;4197;42.130;24.746;2024-01-15T14:25:05;75.20;;;40.00;;
8319;SDS011;4197;42.130;24.746;2024-01-15T14:27:35;67.70;;;38.17;;
8319;SDS011;4197;42.130;24.746;2024-01-15T14:30:04;67.50;;;38.20;;
8319;SDS011;4197;42.130;24.746;2024-01-15T14:32:35;65.00;;;38.17;;
8319;SDS011;4197;42.130;24.746;2024-01-15T14:35:04;85.30;;;40.07;;
8319;SDS011;4197;42.130;24.746;2024-01-15T14:37:36;81.53;;;53.03;;
8319;SDS011;4197;42.130;24.746;2024-01-15T14:40:05;79.73;;;39.23;;
8319;SDS011;4197;42.130;24.746;2024-01-15T14:42:36;72.03;;;37.90;;
8319;SDS011;4197;42.130;24.746;2024-01-15T14:45:05;70.47;;;38.70;;
8319;SDS011;4197;42.130;24.746;2024-01-15T14:47:39;66.27;;;37.77;;
8319;SDS011;4197;42.130;24.746;2024-01-15T14:50:09;62.80;;;34.40;;
8319;SDS011;4197;42.130;24.746;2024-01-15T14:52:42;61.07;;;36.20;;